EDDFMUCC

Guest
Details From EDDF - Frankfurt am Main
To MUCC - JARDINES DEL REY
Flight Number -
Tags decoded
Created
Modified
Stats Distance 4,265 nm / 7,899 km
Max Altitude 0 ft / 0 m
Waypoints 2
Social Downloads 0
Likes 0
Share VATSIM

Download

Looking for another format? Having issues loading an existing format? Contact us
Advertisement - Login to hide

Notes

Requested: EDDF 4930N MUCC

Route

EDDF MUCC

ID Type Via Altitude Latitude Longitude Leg Dist Tot Dist Heading (true) Name
O EDDF APT - 0 ft / 0 m 50.03260˚ 8.54064˚ - 0 nm - Frankfurt am Main
O MUCC APT - 0 ft / 0 m 22.46094˚ -78.32860˚ 4265 nm 4265 nm 283° / 223° JARDINES DEL REY

Altitude Profile

Advertisement - Login to hide

Weather


0- 5 10 15 20 25 30 35+ Temperature / ° C

Clouds and Precipitation
Forecast for 2017-12-15 12:00 UTC. Updated 2 hours ago

Ground ~20,000 ft ~40,000 ft Winds

EDDF

Details ICAO EDDF (FRA)
Name Frankfurt am Main
Region Germany - Civil
Timezone Europe/Berlin (UTC+1.0)
Stats Elevation 355 ft / 108 m (AMSL)
Location 50.032604° 8.540641°
Runways 4
Magnetic Variation 2.343° E

METAR

EDDF 151020Z 13003KT 080V160 4000 -SHSN BR BKN008 FEW018CB BKN022 01/01 Q0997 RESHRA BECMG 8000 SCT008

Decode

TAF

TAF AMD EDDF 150917Z 1509/1612 22006KT 9999 SCT025 TEMPO 1509/1514 SHRA BKN012CB TEMPO 1514/1612 BKN025 PROB30 TEMPO 1604/1610 4000 -RASN BKN012

Decode

Departure Runways

ID Width Length Bearing (true) Bearing (mag) Surface Threshold Offset Overrun Length
07C 197 ft / 60 m 13,091 ft / 3,990 m 69.57° 67.23° Asphalt 0 ft / 0 m 230 ft / 70 m
07L 148 ft / 45 m 9,164 ft / 2,793 m 69.54° 67.20° Concrete 0 ft / 0 m 328 ft / 100 m
07R 148 ft / 45 m 13,094 ft / 3,991 m 69.57° 67.23° Asphalt 0 ft / 0 m 230 ft / 70 m
18 148 ft / 45 m 13,056 ft / 3,980 m 179.84° 177.50° Concrete 0 ft / 0 m 49 ft / 15 m
25C 197 ft / 60 m 13,091 ft / 3,990 m 249.61° 247.27° Asphalt 0 ft / 0 m 1,152 ft / 351 m
25L 148 ft / 45 m 13,094 ft / 3,991 m 249.61° 247.27° Asphalt 0 ft / 0 m 2,051 ft / 625 m
25R 148 ft / 45 m 9,164 ft / 2,793 m 249.57° 247.23° Concrete 0 ft / 0 m 328 ft / 100 m
36 148 ft / 45 m 13,056 ft / 3,980 m 359.84° 357.50° Concrete 0 ft / 0 m 190 ft / 58 m

MUCC

Details ICAO MUCC
Name JARDINES DEL REY
Region Cuba
Timezone America/Havana (UTC-5.0)
Stats Elevation 13 ft / 4 m (AMSL)
Location 22.460945° -78.328602°
Runways 1
Magnetic Variation 7.317° W

METAR

MUCC 150950Z 07007KT 9000 SCT020 22/19 Q1017

Decode

TAF

Not found

Destination Runways

ID Width Length Bearing (true) Bearing (mag) Surface Threshold Offset Overrun Length
08 148 ft / 45 m 9,835 ft / 2,998 m 70.91° 78.23° Asphalt 0 ft / 0 m 0 ft / 0 m
26 148 ft / 45 m 9,835 ft / 2,998 m 250.92° 258.24° Asphalt 0 ft / 0 m 0 ft / 0 m

Approach Navaids

Runway Type Ident Frequency Range Bearing (true) Bearing (mag) Slope Elevation
08 Localiser ICJ 109.90 MHz 18 nm / 33 km 70.92° 78.23° - 13 ft / 4 m (AMSL)
08 Glidescope ICJ 109.90 MHz 10 nm / 19 km 70.92° 78.23° 3.00° 98 ft / 30 m (AMSL)

Popular Alternatives